createdAt,value
2022-11-05T00:02:48.171Z,8.63
2022-11-05T00:06:56.105Z,7.72
2022-11-05T00:10:39.275Z,6.80
2022-11-05T00:14:39.536Z,6.07
2022-11-05T00:18:21.291Z,5.55
2022-11-05T00:22:21.488Z,5.07
2022-11-05T00:26:09.255Z,5.40
2022-11-05T00:29:50.936Z,4.20
2022-11-05T00:33:33.030Z,4.97
2022-11-05T00:37:14.707Z,5.33
2022-11-05T00:40:56.947Z,3.87
2022-11-05T00:44:57.348Z,4.40
2022-11-05T00:48:57.682Z,3.45
2022-11-05T00:53:00.839Z,3.90
2022-11-05T00:56:42.535Z,4.03
2022-11-05T01:00:26.735Z,3.10
2022-11-05T01:04:08.463Z,2.93
2022-11-05T01:07:52.453Z,2.70
2022-11-05T01:11:35.166Z,3.27
2022-11-05T01:15:18.691Z,4.17
2022-11-05T01:19:01.883Z,4.00
2022-11-05T01:22:43.743Z,3.73
2022-11-05T01:26:26.249Z,3.90
2022-11-05T01:30:09.054Z,3.13
2022-11-05T01:33:51.110Z,3.53
2022-11-05T01:37:33.561Z,3.53
2022-11-05T01:41:15.400Z,3.43
2022-11-05T01:45:22.857Z,3.30
2022-11-05T01:49:20.628Z,3.67
2022-11-05T01:53:12.716Z,5.00
2022-11-05T01:57:07.971Z,6.83
2022-11-05T02:00:49.740Z,7.20
2022-11-05T02:04:35.728Z,6.63
2022-11-05T02:08:45.178Z,6.10
2022-11-05T02:12:28.954Z,6.10
2022-11-05T02:16:31.291Z,5.90
2022-11-05T02:20:34.119Z,5.23
2022-11-05T02:24:40.872Z,5.77
2022-11-05T02:28:35.513Z,5.23
2022-11-05T02:32:47.414Z,6.20
2022-11-05T02:36:39.951Z,4.50
2022-11-05T02:40:21.725Z,5.10
2022-11-05T02:44:15.194Z,4.30
2022-11-05T02:48:24.184Z,4.60
2022-11-05T02:52:16.312Z,4.03
2022-11-05T02:56:08.007Z,3.80
2022-11-05T02:59:59.709Z,4.43
2022-11-05T03:03:48.930Z,3.90
2022-11-05T03:08:03.002Z,3.30
2022-11-05T03:12:04.948Z,2.97
2022-11-05T03:16:10.431Z,2.80
2022-11-05T03:20:15.187Z,3.00
2022-11-05T03:24:02.633Z,2.20
2022-11-05T03:27:49.123Z,2.70
2022-11-05T03:31:31.483Z,2.33
2022-11-05T03:35:20.660Z,2.20
2022-11-05T03:39:07.384Z,2.43
2022-11-05T03:42:54.056Z,2.60
2022-11-05T03:46:49.445Z,2.60
2022-11-05T03:50:52.579Z,2.40
2022-11-05T03:54:35.236Z,2.60
2022-11-05T03:58:19.529Z,2.37
2022-11-05T04:02:03.101Z,2.80
2022-11-05T04:06:04.994Z,2.43
2022-11-05T04:10:05.477Z,3.63
2022-11-05T04:13:47.179Z,4.00
2022-11-05T04:17:28.883Z,4.23
2022-11-05T04:21:29.915Z,4.40
2022-11-05T04:29:12.535Z,3.17
2022-11-05T04:32:59.363Z,1.88
2022-11-05T04:36:41.028Z,1.23
2022-11-05T04:40:22.928Z,1.50
2022-11-05T04:44:05.752Z,1.30
2022-11-05T04:47:47.551Z,1.20
2022-11-05T04:51:29.280Z,1.57
2022-11-05T04:55:11.387Z,0.90
2022-11-05T04:58:53.506Z,0.97
2022-11-05T05:02:38.251Z,0.80
2022-11-05T05:06:21.068Z,1.70
2022-11-05T05:10:04.690Z,2.83
2022-11-05T05:13:47.331Z,4.60
2022-11-05T05:17:29.378Z,6.30
2022-11-05T05:21:29.711Z,5.80
2022-11-05T05:25:11.457Z,4.20
2022-11-05T05:28:53.985Z,3.43
2022-11-05T05:32:35.798Z,2.70
2022-11-05T05:36:17.579Z,2.13
2022-11-05T05:39:59.300Z,1.63
2022-11-05T05:43:41.089Z,2.07
2022-11-05T05:47:22.849Z,1.37
2022-11-05T05:51:07.511Z,1.93
2022-11-05T05:54:49.216Z,1.57
2022-11-05T05:58:36.839Z,1.30
2022-11-05T06:02:18.678Z,1.33
2022-11-05T06:06:05.563Z,1.63
2022-11-05T06:09:47.256Z,1.63
2022-11-05T06:13:29.269Z,1.73
2022-11-05T06:17:10.960Z,1.60
2022-11-05T06:20:52.636Z,1.50
2022-11-05T06:24:34.341Z,1.30
2022-11-05T06:28:16.024Z,1.43
2022-11-05T06:31:57.735Z,1.37
2022-11-05T06:35:39.489Z,1.07
2022-11-05T06:39:21.188Z,1.53
2022-11-05T06:43:02.876Z,1.93
2022-11-05T06:46:48.501Z,1.20
2022-11-05T06:50:30.503Z,1.33
2022-11-05T06:54:12.400Z,1.33
2022-11-05T06:57:54.302Z,1.37
2022-11-05T07:01:37.539Z,1.17
2022-11-05T07:05:19.354Z,1.50
2022-11-05T07:09:01.217Z,1.23
2022-11-05T07:12:43.165Z,1.40
2022-11-05T07:16:24.868Z,1.67
2022-11-05T07:20:08.241Z,1.40
2022-11-05T07:23:49.987Z,1.20
2022-11-05T07:27:31.820Z,1.50
2022-11-05T07:31:13.601Z,1.40
2022-11-05T07:34:55.298Z,1.20
2022-11-05T07:38:37.044Z,1.57
2022-11-05T07:42:18.736Z,1.43
2022-11-05T07:46:00.541Z,1.03
2022-11-05T07:49:42.224Z,1.50
2022-11-05T07:53:24.233Z,1.30
2022-11-05T07:57:05.981Z,1.63
2022-11-05T08:00:48.025Z,1.40
2022-11-05T08:04:29.805Z,1.10
2022-11-05T08:08:16.652Z,1.03
2022-11-05T08:12:02.605Z,1.50
2022-11-05T08:15:45.033Z,1.30
2022-11-05T08:19:26.796Z,0.90
2022-11-05T08:23:09.494Z,1.30
2022-11-05T08:26:52.442Z,1.30
2022-11-05T08:30:34.592Z,1.40
2022-11-05T08:34:16.456Z,3.50
2022-11-05T08:38:00.712Z,1.20
2022-11-05T08:41:42.482Z,1.10
2022-11-05T08:45:25.232Z,1.10
2022-11-05T08:49:07.006Z,1.10
2022-11-05T08:52:48.725Z,1.10
2022-11-05T08:56:30.523Z,1.13
2022-11-05T09:00:15.655Z,1.20
2022-11-05T09:03:57.376Z,0.90
2022-11-05T09:07:39.126Z,0.87
2022-11-05T09:11:20.917Z,0.93
2022-11-05T09:15:02.666Z,1.00
2022-11-05T09:18:44.348Z,1.37
2022-11-05T09:22:26.441Z,1.23
2022-11-05T09:26:10.004Z,1.43
2022-11-05T09:29:51.755Z,1.03
2022-11-05T09:33:34.268Z,1.40
2022-11-05T09:37:16.561Z,1.93
2022-11-05T09:41:02.270Z,1.00
2022-11-05T09:44:52.521Z,1.33
2022-11-05T09:48:35.426Z,1.73
2022-11-05T09:52:23.591Z,1.07
2022-11-05T09:56:11.165Z,1.43
2022-11-05T09:59:56.769Z,1.30
2022-11-05T10:03:46.012Z,1.27
2022-11-05T10:07:30.946Z,1.87
2022-11-05T10:11:28.224Z,1.63
2022-11-05T10:15:33.140Z,1.00
2022-11-05T10:19:22.007Z,1.43
2022-11-05T10:23:15.054Z,1.20
2022-11-05T10:26:57.591Z,1.20
2022-11-05T10:30:39.340Z,1.57
2022-11-05T10:34:23.624Z,3.83
2022-11-05T10:38:05.328Z,0.93
2022-11-05T10:41:55.993Z,1.10
2022-11-05T10:45:37.656Z,1.77
2022-11-05T10:49:24.923Z,1.20
2022-11-05T10:53:16.638Z,1.20
2022-11-05T10:56:58.483Z,1.00
2022-11-05T11:00:40.351Z,1.20
2022-11-05T11:04:24.929Z,1.50
2022-11-05T11:08:20.149Z,1.30
2022-11-05T11:12:12.491Z,2.57
2022-11-05T11:15:55.124Z,1.33
2022-11-05T11:19:37.168Z,1.00
2022-11-05T11:23:19.023Z,1.60
2022-11-05T11:27:09.095Z,1.23
2022-11-05T11:31:00.564Z,1.88
2022-11-05T11:34:44.606Z,1.13
2022-11-05T11:38:31.274Z,0.90
2022-11-05T11:42:26.695Z,1.67
2022-11-05T11:46:18.853Z,0.90
2022-11-05T11:50:02.211Z,1.20
2022-11-05T11:53:44.084Z,0.90
2022-11-05T11:57:28.488Z,1.30
2022-11-05T12:01:34.875Z,0.70
2022-11-05T12:05:48.720Z,0.90
2022-11-05T12:09:51.749Z,1.07
2022-11-05T12:13:54.522Z,0.90
2022-11-05T12:17:48.507Z,0.80
2022-11-05T12:22:01.664Z,0.70
2022-11-05T12:25:52.113Z,0.80
2022-11-05T12:30:21.900Z,3.30
2022-11-05T12:34:14.478Z,1.40
2022-11-05T12:38:27.415Z,1.20
2022-11-05T12:42:31.945Z,1.40
2022-11-05T12:46:44.903Z,1.23
2022-11-05T12:50:49.790Z,1.20
2022-11-05T12:54:46.710Z,1.20
2022-11-05T12:58:30.908Z,1.27
2022-11-05T13:02:24.850Z,0.77
2022-11-05T13:06:09.536Z,2.73
2022-11-05T13:09:57.201Z,0.80
2022-11-05T13:13:45.195Z,1.10
2022-11-05T13:17:38.164Z,1.13
2022-11-05T13:21:24.200Z,1.27
2022-11-05T13:25:18.676Z,0.83
2022-11-05T13:29:35.132Z,1.03
2022-11-05T13:33:22.516Z,1.10
2022-11-05T13:37:25.255Z,1.40
2022-11-05T13:41:16.354Z,1.30
2022-11-05T13:45:14.427Z,0.80
2022-11-05T13:49:23.488Z,1.67
2022-11-05T13:53:17.513Z,1.70
2022-11-05T13:57:36.630Z,1.07
2022-11-05T14:01:40.053Z,1.23
2022-11-05T14:05:30.843Z,1.83
2022-11-05T14:09:20.205Z,1.00
2022-11-05T14:13:19.457Z,1.10
2022-11-05T14:17:07.183Z,1.60
2022-11-05T14:21:00.218Z,1.90
2022-11-05T14:24:43.747Z,1.63
2022-11-05T14:28:34.584Z,1.30
2022-11-05T14:36:19.875Z,2.03
2022-11-05T14:40:26.270Z,1.30
2022-11-05T14:44:10.883Z,0.87
2022-11-05T14:47:58.991Z,2.37
2022-11-05T14:51:45.843Z,1.27
2022-11-05T14:55:34.212Z,1.00
2022-11-05T14:59:25.085Z,0.83
2022-11-05T15:07:07.486Z,1.20
2022-11-05T15:10:50.531Z,1.03
2022-11-05T15:14:34.725Z,0.90
2022-11-05T15:18:33.294Z,1.03
2022-11-05T15:22:34.349Z,0.97
2022-11-05T15:26:27.981Z,0.63
2022-11-05T15:30:21.924Z,0.80
2022-11-05T15:34:31.990Z,1.00
2022-11-05T15:38:29.817Z,1.92
2022-11-05T15:42:23.693Z,0.97
2022-11-05T15:46:16.075Z,0.90
2022-11-05T15:50:15.101Z,0.83
2022-11-05T15:58:06.927Z,0.70
2022-11-05T16:01:56.339Z,1.00
2022-11-05T16:05:43.858Z,0.83
2022-11-05T16:09:32.176Z,0.80
2022-11-05T16:13:29.170Z,0.83
2022-11-05T16:17:19.420Z,0.93
2022-11-05T16:21:18.869Z,0.75
2022-11-05T16:25:19.777Z,0.70
2022-11-05T16:32:45.653Z,0.73
2022-11-05T16:36:31.456Z,0.90
2022-11-05T16:40:21.919Z,0.93
2022-11-05T16:44:03.720Z,1.20
2022-11-05T16:47:46.046Z,1.00
2022-11-05T16:51:28.208Z,0.80
2022-11-05T16:55:10.552Z,3.80
2022-11-05T16:58:52.274Z,1.10
2022-11-05T17:02:34.126Z,1.00
2022-11-05T17:06:17.417Z,1.10
2022-11-05T17:09:59.092Z,1.00
2022-11-05T17:13:41.982Z,1.33
2022-11-05T17:17:23.760Z,1.20
2022-11-05T17:21:05.906Z,0.80
2022-11-05T17:24:47.773Z,1.10
2022-11-05T17:28:30.480Z,1.23
2022-11-05T17:32:13.084Z,2.03
2022-11-05T17:35:56.055Z,2.00
2022-11-05T17:39:37.750Z,2.63
2022-11-05T17:43:20.348Z,2.20
2022-11-05T17:47:02.037Z,1.43
2022-11-05T17:50:46.110Z,1.50
2022-11-05T17:54:27.799Z,1.60
2022-11-05T17:58:10.300Z,1.60
2022-11-05T18:01:52.103Z,2.37
2022-11-05T18:05:34.587Z,2.37
2022-11-05T18:09:16.716Z,4.10
2022-11-05T18:12:58.853Z,3.07
2022-11-05T18:16:40.698Z,2.63
2022-11-05T18:20:22.411Z,2.27
2022-11-05T18:24:05.708Z,2.60
2022-11-05T18:27:47.477Z,2.73
2022-11-05T18:31:29.418Z,2.27
2022-11-05T18:35:11.652Z,3.97
2022-11-05T18:38:54.077Z,4.63
2022-11-05T18:42:35.924Z,4.23
2022-11-05T18:46:43.081Z,7.20
2022-11-05T18:50:19.804Z,4.63
2022-11-05T18:54:01.622Z,3.10
2022-11-05T18:57:43.528Z,5.50
2022-11-05T19:01:27.584Z,4.83
2022-11-05T19:09:12.045Z,4.27
2022-11-05T19:12:53.966Z,3.43
2022-11-05T19:16:35.820Z,5.00
2022-11-05T19:20:17.613Z,5.83
2022-11-05T19:24:01.540Z,7.73
2022-11-05T19:27:43.665Z,6.10
2022-11-05T19:31:26.092Z,8.30
2022-11-05T19:35:08.489Z,6.63
2022-11-05T19:38:59.147Z,6.57
2022-11-05T19:42:40.947Z,8.02
2022-11-05T19:46:23.697Z,10.13
2022-11-05T19:50:06.112Z,7.17
2022-11-05T19:53:47.915Z,8.07
2022-11-05T19:57:29.662Z,10.20
2022-11-05T20:01:13.008Z,10.53
2022-11-05T20:04:54.918Z,16.17
2022-11-05T20:08:53.057Z,14.57
2022-11-05T20:12:39.109Z,8.20
2022-11-05T20:16:37.910Z,8.10
2022-11-05T20:20:20.690Z,9.57
2022-11-05T20:24:02.494Z,4.77
2022-11-05T20:27:44.199Z,5.20
2022-11-05T20:31:26.125Z,5.83
2022-11-05T20:35:08.359Z,4.57
2022-11-05T20:38:52.078Z,31.03
2022-11-05T20:42:36.474Z,20.40
2022-11-05T20:46:20.720Z,7.73
2022-11-05T20:50:04.070Z,8.47
2022-11-05T20:53:46.786Z,8.57
2022-11-05T20:57:28.695Z,10.77
2022-11-05T21:01:12.335Z,9.87
2022-11-05T21:04:54.131Z,8.23
2022-11-05T21:08:35.831Z,9.50
2022-11-05T21:12:18.523Z,7.00
2022-11-05T21:16:01.191Z,8.33
2022-11-05T21:19:43.000Z,7.37
2022-11-05T21:23:24.786Z,6.63
2022-11-05T21:27:06.569Z,7.13
2022-11-05T21:30:49.134Z,7.87
2022-11-05T21:34:30.953Z,8.10
2022-11-05T21:38:16.026Z,7.40
2022-11-05T21:41:57.979Z,7.63
2022-11-05T21:45:41.475Z,8.57
2022-11-05T21:49:23.560Z,7.90
2022-11-05T21:53:23.709Z,8.07
2022-11-05T21:57:24.164Z,6.63
2022-11-05T22:01:05.922Z,6.60
2022-11-05T22:04:53.332Z,5.93
2022-11-05T22:08:35.124Z,7.17
2022-11-05T22:12:16.965Z,5.23
2022-11-05T22:15:58.732Z,8.33
2022-11-05T22:19:40.548Z,7.37
2022-11-05T22:23:22.533Z,6.03
2022-11-05T22:27:11.878Z,6.20
2022-11-05T22:30:53.577Z,7.17
2022-11-05T22:34:35.334Z,8.43
2022-11-05T22:38:17.111Z,8.17
2022-11-05T22:42:02.045Z,8.23
2022-11-05T22:45:47.411Z,8.70
2022-11-05T22:49:29.336Z,10.97
2022-11-05T22:53:11.016Z,14.57
2022-11-05T22:56:53.764Z,19.20
2022-11-05T23:00:37.757Z,14.93
2022-11-05T23:04:19.545Z,11.17
2022-11-05T23:08:19.793Z,13.83
2022-11-05T23:12:03.404Z,11.23
2022-11-05T23:16:03.508Z,9.20
2022-11-05T23:20:03.905Z,8.90
2022-11-05T23:24:04.091Z,9.70
2022-11-05T23:27:48.428Z,8.38
2022-11-05T23:31:48.914Z,8.63
2022-11-05T23:35:49.360Z,9.45
2022-11-05T23:39:31.039Z,10.15
2022-11-05T23:43:31.167Z,10.50
2022-11-05T23:47:31.338Z,10.50
2022-11-05T23:51:13.344Z,10.88
2022-11-05T23:54:55.029Z,9.97
2022-11-05T23:58:38.010Z,12.30
